Wednesday, November 22, 2017, 9:04 AM GMT
Back to Local

CYQM, Moncton, N. B.

Location: , , Canada Lat: 46.117
Local Time: 9:04 AM GMT ( 9:04 GMT) Lon: -64.683
Time Zone: GMT Elev: 232 ft

Show me the last for .
Show Decoded

2017-11-22 08:00 METAR CYQM 220800Z 20005KT 15SM FEW220 06/04 A3000 RMK CI1 SLP162 =
2017-11-22 07:00 METAR CYQM 220700Z 18006KT 15SM FEW220 05/04 A2999 RMK CI1 SLP161 =
2017-11-22 06:00 METAR CYQM 220600Z 18005KT 15SM FEW220 05/04 A2998 RMK CI2 SLP157 =
2017-11-22 05:00 METAR CYQM 220500Z 19007KT 15SM SCT220 06/04 A2998 RMK CI3 SLP158 =
2017-11-22 04:00 METAR CYQM 220400Z 18010KT 15SM FEW220 06/05 A2998 RMK CI2 SLP156 =
2017-11-22 03:00 METAR CYQM 220300Z 18010KT 15SM FEW220 06/04 A2998 RMK CI1 SLP156 =
2017-11-22 02:00 METAR CYQM 220200Z 18009KT 15SM FEW220 04/03 A2998 RMK CI2 SLP157 =
2017-11-22 01:00 METAR CYQM 220100Z 18006KT 15SM SCT220 03/01 A2998 RMK CI3 SLP159 =
2017-11-22 00:26 METAR CYQM 220026Z 16008KT 15SM FEW240 02/00 A2999 RMK CI2 SLP161 =
2017-11-22 00:00 METAR CYQM 220000Z 17011KT 15SM FEW240 03/00 A2999 RMK CI2 SLP161 =
2017-11-21 23:00 METAR CYQM 212300Z 16011KT 15SM FEW240 02/M01 A3000 RMK CI2 SLP165 =
2017-11-21 22:00 METAR CYQM 212200Z 16008KT 15SM FEW026 FEW240 01/M02 A3001 RMK SC1CI1 SLP168 =
2017-11-21 21:00 METAR CYQM 212100Z 15004KT 15SM BKN026 01/M06 A3003 RMK SC6 SLP174 =
2017-11-21 20:00 METAR CYQM 212000Z 20003KT 15SM FEW090 FEW240 01/M09 A3003 RMK AC1CI1 CI TR
                 SLP174 =
2017-11-21 19:00 METAR CYQM 211900Z 24005KT 14SM FEW240 01/M10 A3003 RMK CI1 CI TR SLP176 =
2017-11-21 18:00 METAR CYQM 211800Z 22009KT 15SM FEW240 00/M11 A3003 RMK CI1 SLP175 =
2017-11-21 17:00 METAR CYQM 211700Z 22011KT 15SM FEW240 M02/M13 A3004 RMK CI2 SLP179 =
2017-11-21 16:00 METAR CYQM 211600Z 22013KT 15SM FEW130 BKN240 M03/M13 A3006 RMK AC1CI6 AC TR
                 SLP184 =
2017-11-21 15:00 METAR CYQM 211500Z 23014G21KT 15SM FEW130 FEW240 M05/M13 A3005 RMK AC1CI2 AC TR
                 SLP182 =
2017-11-21 14:00 METAR CYQM 211400Z 24012G20KT 15SM FEW240 M06/M13 A3004 RMK CI1 SLP178 =
2017-11-21 13:00 METAR CYQM 211300Z 23016KT 15SM FEW240 M08/M14 A3004 RMK CI1 CI TR SLP179 =
2017-11-21 12:00 METAR CYQM 211200Z 24013G19KT 15SM FEW020 FEW260 M09/M14 A3002 RMK CU1CI1 CU TR
                 CI TR SLP171 =
2017-11-21 11:00 METAR CYQM 211100Z 24015KT 15SM FEW020 M09/M14 A3000 RMK CU1 CU TR SLP165 =
2017-11-21 10:00 METAR CYQM 211000Z 25017G22KT 15SM SKC M09/M15 A2996 RMK SLP153 =

Support USWX by starting your Amazon purchase here.